Time;durP1;ratioP1;P1;durP2;ratioP2;P2;SDS_P1;SDS_P2;PMS_P1;PMS_P2;Temp;Humidity;BMP_temperature;BMP_pressure;BME280_temperature;BME280_humidity;BME280_pressure;Samples;Min_cycle;Max_cycle;Signal;HPM_P1;HPM_P2
2022/06/01 00:01:23;;;;;;;9.85;7.18;;;;;;;18.28;nan;99538.41;4961655;28;20039;-77
2022/06/01 00:03:49;;;;;;;8.00;7.30;;;;;;;18.18;nan;99546.75;4962926;28;20035;-77
2022/06/01 00:06:15;;;;;;;7.55;6.95;;;;;;;18.17;nan;99544.25;4958956;28;20035;-78
2022/06/01 00:08:41;;;;;;;9.60;7.32;;;;;;;18.19;nan;99547.56;4964343;28;20031;-76
2022/06/01 00:11:08;;;;;;;8.77;7.97;;;;;;;18.05;nan;99551.94;4964485;28;20067;-79
2022/06/01 00:13:34;;;;;;;8.30;7.53;;;;;;;17.94;nan;99545.28;4973360;28;20738;-77
2022/06/01 00:16:00;;;;;;;8.45;7.65;;;;;;;17.83;nan;99540.44;4971646;28;20039;-77
2022/06/01 00:18:25;;;;;;;7.72;6.90;;;;;;;17.91;nan;99550.16;4967993;28;20067;-78
2022/06/01 00:20:52;;;;;;;8.15;7.45;;;;;;;17.96;nan;99550.44;4965336;28;20027;-79
2022/06/01 00:23:19;;;;;;;9.38;8.48;;;;;;;17.81;nan;99555.00;4967058;28;20388;-78
2022/06/01 00:25:44;;;;;;;8.15;7.45;;;;;;;17.82;nan;99548.63;4985714;28;20108;-78
2022/06/01 00:28:10;;;;;;;8.23;7.63;;;;;;;17.79;nan;99541.03;4965028;28;20553;-78
2022/06/01 00:30:36;;;;;;;8.30;7.70;;;;;;;17.82;nan;99551.31;4967011;28;20027;-78
2022/06/01 00:33:02;;;;;;;7.47;6.85;;;;;;;17.90;nan;99553.88;4965003;28;20026;-78
2022/06/01 00:35:28;;;;;;;8.57;7.88;;;;;;;17.98;nan;99551.06;4965423;28;20035;-78
2022/06/01 00:37:53;;;;;;;8.95;7.65;;;;;;;18.03;nan;99543.28;4965710;28;20472;-78
2022/06/01 00:40:21;;;;;;;8.95;8.00;;;;;;;18.04;nan;99552.13;4964605;28;20031;-79
2022/06/01 00:42:50;;;;;;;9.18;8.23;;;;;;;18.04;nan;99560.16;4965509;28;20089;-79
2022/06/01 00:45:21;;;;;;;8.23;7.25;;;;;;;18.00;nan;99559.72;4963851;28;20480;-78
2022/06/01 00:47:47;;;;;;;8.45;7.65;;;;;;;17.85;nan;99561.59;4966682;28;20050;-78
2022/06/01 00:50:20;;;;;;;7.55;6.78;;;;;;;17.82;nan;99573.50;4964079;28;20036;-77
2022/06/01 00:52:51;;;;;;;7.53;6.80;;;;;;;17.86;nan;99553.41;4964178;28;20034;-77
2022/06/01 00:55:28;;;;;;;7.40;6.70;;;;;;;17.89;nan;99554.88;4964077;28;20115;-79
2022/06/01 00:58:02;;;;;;;7.97;7.25;;;;;;;17.86;nan;99552.56;4963510;28;20446;-79
2022/06/01 01:00:32;;;;;;;8.55;7.78;;;;;;;17.80;nan;99546.16;4962672;28;20046;-79
2022/06/01 01:03:01;;;;;;;10.18;8.35;;;;;;;17.79;nan;99551.69;4962651;28;20046;-77
2022/06/01 01:05:27;;;;;;;7.97;7.38;;;;;;;17.79;nan;99554.38;4961165;28;20062;-77
2022/06/01 01:07:54;;;;;;;7.93;7.32;;;;;;;17.77;nan;99559.06;4964457;28;20062;-78
2022/06/01 01:10:22;;;;;;;8.90;7.90;;;;;;;17.79;nan;99546.38;4966042;28;20045;-80
2022/06/01 01:13:05;;;;;;;9.60;8.40;;;;;;;17.74;nan;99548.75;4963848;28;20027;-79
2022/06/01 01:15:35;;;;;;;11.70;8.90;;;;;;;17.72;nan;99551.63;4963982;28;20417;-78
2022/06/01 01:18:06;;;;;;;9.05;8.30;;;;;;;17.66;nan;99551.53;4965752;28;20031;-78
2022/06/01 01:20:34;;;;;;;8.93;8.23;;;;;;;17.66;nan;99557.72;4963566;28;20051;-77
2022/06/01 01:23:23;;;;;;;9.65;8.77;;;;;;;17.57;nan;99562.28;4965104;28;20035;-78
2022/06/01 01:25:50;;;;;;;7.47;6.88;;;;;;;17.52;nan;99558.53;4966902;28;20034;-78
2022/06/01 01:28:15;;;;;;;9.13;8.23;;;;;;;17.43;nan;99559.66;4963354;28;20039;-78
2022/06/01 01:30:56;;;;;;;8.60;7.57;;;;;;;17.34;nan;99548.25;4966251;28;20034;-78
2022/06/01 01:33:26;;;;;;;10.57;8.48;;;;;;;17.37;nan;99547.91;4963165;28;20115;-77
2022/06/01 01:35:55;;;;;;;8.50;7.80;;;;;;;17.22;nan;99549.75;4965123;28;20369;-77
2022/06/01 01:38:27;;;;;;;9.57;8.77;;;;;;;17.06;nan;99550.78;4962979;28;20539;-78
2022/06/01 01:41:22;;;;;;;8.70;7.82;;;;;;;17.12;nan;99560.69;4964561;28;20054;-78
2022/06/01 01:44:09;;;;;;;9.02;8.20;;;;;;;17.18;nan;99553.78;4958290;28;20340;-78
2022/06/01 01:46:34;;;;;;;8.68;7.97;;;;;;;17.21;nan;99556.09;4962725;28;20039;-79
2022/06/01 01:49:01;;;;;;;8.30;7.60;;;;;;;17.17;nan;99558.31;4963416;28;20023;-78
2022/06/01 01:51:29;;;;;;;8.77;7.97;;;;;;;17.18;nan;99556.47;4962653;28;20039;-78
2022/06/01 01:53:56;;;;;;;8.23;7.53;;;;;;;17.13;nan;99556.19;4964304;28;20117;-78
2022/06/01 01:56:24;;;;;;;8.88;8.18;;;;;;;16.99;nan;99557.00;4963242;28;20030;-79
2022/06/01 01:59:20;;;;;;;8.98;8.27;;;;;;;16.97;nan;99545.69;4964459;28;20058;-79
2022/06/01 02:01:56;;;;;;;9.00;7.50;;;;;;;16.97;nan;99551.03;4962692;28;20031;-78
2022/06/01 02:07:43;;;;;;;9.90;8.82;;;;;;;16.97;nan;99545.69;4964419;28;20043;-77
2022/06/01 02:12:53;;;;;;;9.70;8.88;;;;;;;16.99;nan;99549.00;4966351;28;20035;-78
2022/06/01 02:15:25;;;;;;;9.43;8.63;;;;;;;17.02;nan;99548.66;4963488;28;20050;-78
2022/06/01 02:17:58;;;;;;;9.13;8.32;;;;;;;17.03;nan;99544.97;4965040;28;20039;-79
2022/06/01 02:20:28;;;;;;;8.68;8.07;;;;;;;17.02;nan;99538.81;4976060;28;20043;-77
2022/06/01 02:22:54;;;;;;;10.18;8.88;;;;;;;16.86;nan;99547.00;4974319;28;20041;-78
2022/06/01 02:25:19;;;;;;;8.57;7.95;;;;;;;16.71;nan;99547.00;4964972;28;20443;-79
2022/06/01 02:27:48;;;;;;;11.38;7.85;;;;;;;16.67;nan;99539.56;4962220;28;20043;-79
2022/06/01 02:30:24;;;;;;;8.38;7.45;;;;;;;16.64;nan;99538.06;4962075;28;20035;-78
2022/06/01 02:32:51;;;;;;;8.60;7.88;;;;;;;16.63;nan;99539.06;4962660;28;20043;-78
2022/06/01 02:35:22;;;;;;;8.75;8.05;;;;;;;16.60;nan;99539.44;4965003;28;20102;-77
2022/06/01 02:37:52;;;;;;;8.77;8.05;;;;;;;16.60;nan;99546.59;4964052;28;20399;-78
2022/06/01 02:40:20;;;;;;;10.25;9.45;;;;;;;16.55;nan;99547.09;4961947;28;20054;-78
2022/06/01 02:42:51;;;;;;;10.90;9.60;;;;;;;16.43;nan;99543.25;4964325;28;20059;-78
2022/06/01 02:45:22;;;;;;;9.68;8.70;;;;;;;16.44;nan;99544.03;4961809;28;20039;-78
2022/06/01 02:47:50;;;;;;;9.98;9.10;;;;;;;16.48;nan;99546.19;4962999;28;20039;-78
2022/06/01 02:50:20;;;;;;;11.57;10.38;;;;;;;16.54;nan;99556.13;4961602;28;20031;-78
2022/06/01 02:52:46;;;;;;;15.32;10.00;;;;;;;16.52;nan;99555.47;4963906;28;20521;-78
2022/06/01 02:55:14;;;;;;;10.20;9.20;;;;;;;16.57;nan;99555.75;4961345;28;20115;-79
2022/06/01 02:57:43;;;;;;;9.75;8.95;;;;;;;16.62;nan;99564.06;4960837;28;20090;-78
2022/06/01 03:00:17;;;;;;;8.90;8.07;;;;;;;16.62;nan;99557.88;4964031;28;20085;-78
2022/06/01 03:02:52;;;;;;;10.15;9.13;;;;;;;16.58;nan;99557.41;4964920;28;20043;-79
2022/06/01 03:05:22;;;;;;;11.20;10.05;;;;;;;16.60;nan;99560.75;4961670;28;20444;-78
2022/06/01 03:07:48;;;;;;;11.02;10.00;;;;;;;16.60;nan;99562.59;4963543;28;20554;-77
2022/06/01 03:10:14;;;;;;;11.18;10.18;;;;;;;16.43;nan;99559.22;4961063;28;20062;-79
2022/06/01 03:12:39;;;;;;;10.57;9.55;;;;;;;16.35;nan;99556.63;4961009;28;20058;-79
2022/06/01 03:15:08;;;;;;;10.20;9.30;;;;;;;16.25;nan;99561.38;4963594;28;20043;-79
2022/06/01 03:17:33;;;;;;;11.02;10.20;;;;;;;16.13;nan;99560.97;4961303;28;20085;-78
2022/06/01 03:20:00;;;;;;;10.32;9.52;;;;;;;16.10;nan;99553.31;4962848;28;20066;-79
2022/06/01 03:22:25;;;;;;;11.05;9.95;;;;;;;16.06;nan;99552.03;4961212;28;20110;-78
2022/06/01 03:24:51;;;;;;;11.13;10.15;;;;;;;16.08;nan;99555.31;4963262;28;20109;-78
2022/06/01 03:27:17;;;;;;;10.82;9.85;;;;;;;16.10;nan;99563.13;4961129;28;20031;-77
2022/06/01 03:29:44;;;;;;;10.25;9.48;;;;;;;16.15;nan;99555.44;4963809;28;20070;-79
2022/06/01 03:32:09;;;;;;;20.25;11.38;;;;;;;16.12;nan;99561.13;4960742;28;20046;-79
2022/06/01 03:34:35;;;;;;;12.40;11.20;;;;;;;16.14;nan;99564.47;4963031;28;20023;-78
2022/06/01 03:37:02;;;;;;;12.38;11.38;;;;;;;16.09;nan;99564.13;4960138;28;20035;-79
2022/06/01 03:39:28;;;;;;;11.93;10.68;;;;;;;15.98;nan;99560.91;4962258;28;20082;-79
2022/06/01 03:41:54;;;;;;;13.23;11.30;;;;;;;15.94;nan;99564.91;4960198;28;20110;-79
2022/06/01 03:47:09;;;;;;;11.48;10.43;;;;;;;15.95;nan;99561.25;4974045;28;20031;-78
2022/06/01 03:49:35;;;;;;;13.20;11.93;;;;;;;15.98;nan;99568.88;4961430;28;20046;-78
2022/06/01 03:52:01;;;;;;;12.75;11.55;;;;;;;15.97;nan;99566.38;4964356;28;20034;-79
2022/06/01 03:54:27;;;;;;;15.80;13.00;;;;;;;15.98;nan;99574.19;4959946;28;20036;-78
2022/06/01 03:56:53;;;;;;;17.48;12.65;;;;;;;15.98;nan;99576.03;4979402;28;20097;-79
2022/06/01 03:59:18;;;;;;;13.75;12.45;;;;;;;15.94;nan;99575.56;4965638;28;20113;-78
2022/06/01 04:01:44;;;;;;;13.57;12.27;;;;;;;15.95;nan;99582.56;4967932;28;20043;-78
2022/06/01 04:04:09;;;;;;;13.65;12.38;;;;;;;15.86;nan;99572.94;4968100;28;20113;-78
2022/06/01 04:06:34;;;;;;;14.13;12.80;;;;;;;15.82;nan;99571.66;4964618;28;20041;-78
2022/06/01 04:09:00;;;;;;;14.95;13.40;;;;;;;15.86;nan;99572.13;4966405;28;20054;-79
2022/06/01 04:11:26;;;;;;;14.35;13.05;;;;;;;15.85;nan;99579.28;4965442;28;20066;-78
2022/06/01 04:13:51;;;;;;;13.85;12.43;;;;;;;15.88;nan;99580.75;4980275;28;20045;-79
2022/06/01 04:16:18;;;;;;;14.77;13.38;;;;;;;15.91;nan;99573.25;4965529;28;20093;-78
2022/06/01 04:18:47;;;;;;;14.20;12.80;;;;;;;15.93;nan;99578.41;4963825;28;20038;-79
2022/06/01 04:21:15;;;;;;;14.43;12.95;;;;;;;15.90;nan;99579.56;4964737;28;20038;-78
2022/06/01 04:23:40;;;;;;;14.95;13.57;;;;;;;15.96;nan;99586.84;4966880;28;20050;-79
2022/06/01 04:26:06;;;;;;;17.02;14.57;;;;;;;15.95;nan;99582.56;4964654;28;20031;-79
2022/06/01 04:28:31;;;;;;;15.15;13.68;;;;;;;16.04;nan;99587.81;4966368;28;20062;-78
2022/06/01 04:30:57;;;;;;;18.48;14.95;;;;;;;16.11;nan;99596.75;4967477;28;20038;-78
2022/06/01 04:33:22;;;;;;;15.73;14.27;;;;;;;16.16;nan;99597.03;4965993;28;20057;-78
2022/06/01 04:35:48;;;;;;;14.90;13.52;;;;;;;16.10;nan;99595.09;4964595;28;20023;-79
2022/06/01 04:38:13;;;;;;;18.08;14.52;;;;;;;16.11;nan;99594.09;4967268;28;20467;-79
2022/06/01 04:40:45;;;;;;;14.88;13.30;;;;;;;16.20;nan;99601.03;4963631;28;20773;-78
2022/06/01 04:43:13;;;;;;;15.55;13.98;;;;;;;16.21;nan;99602.66;4964039;28;20028;-78
2022/06/01 04:45:38;;;;;;;14.55;13.15;;;;;;;16.22;nan;99609.63;4966996;28;20046;-78
2022/06/01 04:48:04;;;;;;;16.10;14.43;;;;;;;16.26;nan;99610.94;4964615;28;20050;-79
2022/06/01 04:50:29;;;;;;;14.80;13.32;;;;;;;16.29;nan;99616.75;4965528;28;20042;-78
2022/06/01 04:52:55;;;;;;;14.02;12.93;;;;;;;16.37;nan;99618.53;4965276;28;20031;-78
2022/06/01 04:55:21;;;;;;;14.30;13.00;;;;;;;16.47;nan;99624.44;4964369;28;20101;-78
2022/06/01 04:57:46;;;;;;;15.65;14.05;;;;;;;16.38;nan;99618.31;4969749;28;20034;-80
2022/06/01 05:00:13;;;;;;;16.45;14.77;;;;;;;16.29;nan;99626.56;4972016;28;20049;-77
2022/06/01 05:02:38;;;;;;;15.63;13.95;;;;;;;16.34;nan;99630.34;4972950;28;20031;-77
2022/06/01 05:05:04;;;;;;;16.50;14.57;;;;;;;16.46;nan;99630.75;4976756;28;20412;-77
2022/06/01 05:07:30;;;;;;;16.33;14.73;;;;;;;16.55;nan;99629.69;4962098;28;20165;-79
2022/06/01 05:09:56;;;;;;;18.95;17.02;;;;;;;16.60;nan;99635.34;4964088;28;20031;-77
2022/06/01 05:12:22;;;;;;;17.15;15.43;;;;;;;16.60;nan;99635.34;4965116;28;20038;-77
2022/06/01 05:14:47;;;;;;;19.98;16.83;;;;;;;16.62;nan;99633.31;4963247;28;20039;-77
2022/06/01 05:17:13;;;;;;;19.05;17.05;;;;;;;16.52;nan;99632.72;4966194;28;20046;-77
2022/06/01 05:19:40;;;;;;;20.17;18.10;;;;;;;16.59;nan;99641.69;4962704;28;20212;-77
2022/06/01 05:22:05;;;;;;;19.92;17.83;;;;;;;16.45;nan;99637.09;4963758;28;20396;-78
2022/06/01 05:24:30;;;;;;;19.95;17.95;;;;;;;16.32;nan;99642.19;4964675;28;20035;-78
2022/06/01 05:26:56;;;;;;;19.98;17.85;;;;;;;16.15;nan;99643.28;4964143;28;20494;-78
2022/06/01 05:29:22;;;;;;;19.80;17.73;;;;;;;16.20;nan;99646.28;4961635;28;20145;-77
2022/06/01 05:31:48;;;;;;;22.45;20.08;;;;;;;16.23;nan;99640.59;4964951;28;20042;-77
2022/06/01 05:34:14;;;;;;;21.45;19.23;;;;;;;16.32;nan;99639.50;4962306;28;20031;-77
2022/06/01 05:36:40;;;;;;;25.38;21.25;;;;;;;16.47;nan;99640.41;4961929;28;20059;-77
2022/06/01 05:39:05;;;;;;;24.42;20.33;;;;;;;16.62;nan;99648.47;4964773;28;20476;-76
2022/06/01 05:41:31;;;;;;;22.63;19.75;;;;;;;16.69;nan;99650.25;4965087;28;20038;-78
2022/06/01 05:43:56;;;;;;;22.45;20.35;;;;;;;16.61;nan;99655.63;4963531;28;20033;-78
2022/06/01 05:46:23;;;;;;;22.48;20.23;;;;;;;16.66;nan;99661.28;4962635;28;20117;-78
2022/06/01 05:48:48;;;;;;;22.88;20.55;;;;;;;16.79;nan;99661.47;4964655;28;20030;-80
2022/06/01 05:51:14;;;;;;;23.45;20.95;;;;;;;16.78;nan;99654.53;4976938;28;20041;-79
2022/06/01 05:53:40;;;;;;;26.67;21.27;;;;;;;16.85;nan;99659.13;4963478;28;20035;-79
2022/06/01 05:56:05;;;;;;;25.02;22.48;;;;;;;16.95;nan;99665.03;4962576;28;20488;-79
2022/06/01 05:58:32;;;;;;;26.42;23.50;;;;;;;16.99;nan;99671.63;4963619;28;20046;-79
2022/06/01 06:01:02;;;;;;;29.45;23.58;;;;;;;16.72;nan;99667.72;4963177;28;20030;-79
2022/06/01 06:03:27;;;;;;;26.15;23.33;;;;;;;16.61;nan;99668.97;4963010;28;20245;-79
2022/06/01 06:06:13;;;;;;;27.13;24.40;;;;;;;16.39;nan;99672.41;4963994;28;20476;-79
2022/06/01 06:08:46;;;;;;;28.33;23.95;;;;;;;16.46;nan;99676.03;4964312;28;20046;-77
2022/06/01 06:11:13;;;;;;;30.40;24.38;;;;;;;16.61;nan;99673.47;4961635;28;20106;-77
2022/06/01 06:13:39;;;;;;;30.00;23.63;;;;;;;16.81;nan;99673.81;4964505;28;20035;-78
2022/06/01 06:16:06;;;;;;;28.85;25.85;;;;;;;16.99;nan;99671.63;4961775;28;20440;-78
2022/06/01 06:18:31;;;;;;;30.20;24.75;;;;;;;17.14;nan;99665.31;4963741;28;20068;-79
2022/06/01 06:20:56;;;;;;;28.58;24.20;;;;;;;17.20;nan;99680.59;4962982;28;20240;-79
2022/06/01 06:23:22;;;;;;;26.38;22.60;;;;;;;17.31;nan;99682.00;4961930;28;20456;-79
2022/06/01 06:25:48;;;;;;;27.83;23.27;;;;;;;17.45;nan;99683.81;4964290;28;20503;-78
2022/06/01 06:28:13;;;;;;;27.33;24.38;;;;;;;17.51;nan;99680.44;4961452;28;20102;-78
2022/06/01 06:30:40;;;;;;;27.38;24.42;;;;;;;17.50;nan;99684.09;4964194;28;20042;-78
2022/06/01 06:33:06;;;;;;;27.63;24.27;;;;;;;17.43;nan;99691.22;4962001;28;20428;-79
2022/06/01 06:35:33;;;;;;;34.33;25.23;;;;;;;17.47;nan;99692.50;4963312;28;20154;-79
2022/06/01 06:37:58;;;;;;;30.13;27.02;;;;;;;17.52;nan;99694.59;4962422;28;20479;-79
2022/06/01 06:40:24;;;;;;;28.42;25.25;;;;;;;17.57;nan;99697.53;4962103;28;20036;-78
2022/06/01 06:42:51;;;;;;;29.85;24.30;;;;;;;17.64;nan;99703.00;4963662;28;20038;-78
2022/06/01 06:45:17;;;;;;;27.80;24.65;;;;;;;17.70;nan;99703.09;4961584;28;20038;-79
2022/06/01 06:47:42;;;;;;;27.77;24.88;;;;;;;17.75;nan;99699.88;4963390;28;20491;-78
2022/06/01 06:50:11;;;;;;;30.63;25.17;;;;;;;17.72;nan;99697.59;4961767;28;20028;-79
2022/06/01 06:52:37;;;;;;;28.20;25.13;;;;;;;17.72;nan;99689.56;4963649;28;20069;-79
2022/06/01 06:55:02;;;;;;;28.48;24.38;;;;;;;17.80;nan;99684.13;4961745;28;20050;-79
2022/06/01 06:57:28;;;;;;;25.60;23.05;;;;;;;17.96;nan;99689.28;4962649;28;20090;-79
2022/06/01 06:59:53;;;;;;;26.58;23.88;;;;;;;18.09;nan;99694.75;4962871;28;20031;-79
2022/06/01 07:02:19;;;;;;;26.52;23.73;;;;;;;18.24;nan;99695.56;4961281;28;20035;-79
2022/06/01 07:04:46;;;;;;;27.75;24.50;;;;;;;18.37;nan;99695.72;4963605;28;20454;-79
2022/06/01 07:07:12;;;;;;;27.10;24.20;;;;;;;18.33;nan;99698.91;4963930;28;20110;-79
2022/06/01 07:09:38;;;;;;;28.95;26.00;;;;;;;18.40;nan;99694.47;4960347;28;20467;-78
2022/06/01 07:12:04;;;;;;;28.65;25.50;;;;;;;18.52;nan;99703.66;4963281;28;20464;-79
2022/06/01 07:14:30;;;;;;;30.45;26.05;;;;;;;18.71;nan;99707.56;4962726;28;20039;-79
2022/06/01 07:16:58;;;;;;;29.17;25.42;;;;;;;18.75;nan;99707.00;4970863;28;20126;-79
2022/06/01 07:19:24;;;;;;;29.40;26.35;;;;;;;18.91;nan;99705.91;4969027;28;20038;-79
2022/06/01 07:21:49;;;;;;;27.83;24.83;;;;;;;19.09;nan;99706.25;4961101;28;20027;-79
2022/06/01 07:24:15;;;;;;;28.35;25.25;;;;;;;19.15;nan;99707.31;4977950;28;20380;-79
2022/06/01 07:26:43;;;;;;;28.80;25.77;;;;;;;19.26;nan;99706.00;4963698;28;20093;-79
2022/06/01 07:29:10;;;;;;;28.38;24.83;;;;;;;19.41;nan;99704.03;4960665;28;20396;-78
2022/06/01 07:31:35;;;;;;;24.02;21.52;;;;;;;19.42;nan;99711.88;4963482;28;20039;-78
2022/06/01 07:34:02;;;;;;;22.95;20.15;;;;;;;19.57;nan;99709.09;4962615;28;20391;-78
2022/06/01 07:36:29;;;;;;;21.85;19.45;;;;;;;19.74;nan;99706.91;4961717;28;20042;-79
2022/06/01 07:44:38;;;;;;;19.45;17.48;;;;;;;20.09;nan;99713.88;4960379;28;20032;-78
2022/06/01 07:47:05;;;;;;;19.48;17.42;;;;;;;20.21;nan;99711.44;4962929;28;20449;-78
2022/06/01 07:49:30;;;;;;;18.02;15.85;;;;;;;20.34;nan;99716.88;4959283;28;20035;-79
2022/06/01 07:51:56;;;;;;;18.38;16.52;;;;;;;20.39;nan;99714.44;4962254;28;20035;-78
2022/06/01 07:54:23;;;;;;;19.73;16.98;;;;;;;20.47;nan;99716.94;4963025;28;20824;-79
2022/06/01 07:56:48;;;;;;;17.65;15.90;;;;;;;20.48;nan;99718.59;4965407;28;20105;-78
2022/06/01 07:59:14;;;;;;;18.67;16.80;;;;;;;20.53;nan;99717.97;4975295;28;20032;-78
2022/06/01 08:01:40;;;;;;;18.17;16.27;;;;;;;20.58;nan;99713.66;4960010;28;20583;-79
2022/06/01 08:04:06;;;;;;;18.02;16.15;;;;;;;20.59;nan;99722.53;4962919;28;20035;-78
2022/06/01 08:06:34;;;;;;;18.60;15.38;;;;;;;20.65;nan;99714.50;4960685;28;20038;-78
2022/06/01 08:09:01;;;;;;;16.45;14.75;;;;;;;20.69;nan;99715.72;4961956;28;20031;-78
2022/06/01 08:14:13;;;;;;;19.10;17.08;;;;;;;20.68;nan;99719.44;4963542;28;20034;-78
2022/06/01 08:16:40;;;;;;;20.20;17.13;;;;;;;20.68;nan;99707.88;4958398;28;20049;-78
2022/06/01 08:19:06;;;;;;;19.90;17.55;;;;;;;20.73;nan;99711.63;4962727;28;20517;-78
2022/06/01 08:21:33;;;;;;;18.00;16.30;;;;;;;20.77;nan;99704.81;4960216;28;20058;-79
2022/06/01 08:23:58;;;;;;;18.63;16.75;;;;;;;20.80;nan;99707.06;4963938;28;20426;-78
2022/06/01 08:26:23;;;;;;;19.02;16.02;;;;;;;20.85;nan;99703.81;4962451;28;20032;-79
2022/06/01 08:28:49;;;;;;;17.65;15.85;;;;;;;20.92;nan;99711.84;4966317;28;20030;-79
2022/06/01 08:31:15;;;;;;;19.70;17.52;;;;;;;20.98;nan;99709.16;4964921;28;20045;-78
2022/06/01 08:33:41;;;;;;;19.73;17.63;;;;;;;20.97;nan;99712.06;4974836;28;20118;-79
2022/06/01 08:36:06;;;;;;;20.15;18.05;;;;;;;21.06;nan;99716.19;4975010;28;20039;-78
2022/06/01 08:38:33;;;;;;;24.15;19.27;;;;;;;21.15;nan;99709.59;4961632;28;20071;-79
2022/06/01 08:41:03;;;;;;;27.13;20.30;;;;;;;21.20;nan;99715.19;4961304;28;20057;-76
2022/06/01 08:43:34;;;;;;;19.95;17.67;;;;;;;21.31;nan;99713.72;4962390;28;20047;-78
2022/06/01 08:46:02;;;;;;;18.70;16.80;;;;;;;21.41;nan;99709.59;4964699;28;20538;-78
2022/06/01 08:48:43;;;;;;;19.65;17.63;;;;;;;21.40;nan;99710.59;4964832;28;20097;-79
2022/06/01 08:51:09;;;;;;;17.25;15.60;;;;;;;21.47;nan;99699.88;4978298;28;20042;-78
2022/06/01 08:53:35;;;;;;;19.67;17.65;;;;;;;21.55;nan;99700.47;4965020;28;21391;-78
2022/06/01 08:56:20;;;;;;;21.10;18.10;;;;;;;21.57;nan;99701.06;4964537;28;20027;-78
2022/06/01 08:58:57;;;;;;;18.27;16.38;;;;;;;21.63;nan;99697.53;4963133;28;20476;-78
2022/06/01 09:01:39;;;;;;;18.83;16.90;;;;;;;21.71;nan;99693.00;4965184;28;20041;-79
2022/06/01 09:04:14;;;;;;;21.67;18.10;;;;;;;21.77;nan;99697.53;4965906;28;20047;-77
2022/06/01 09:06:50;;;;;;;20.73;17.98;;;;;;;21.67;nan;99697.97;4962750;28;20047;-78
2022/06/01 09:09:24;;;;;;;19.40;17.40;;;;;;;21.53;nan;99686.44;4962965;28;20503;-78
2022/06/01 09:11:50;;;;;;;18.42;16.42;;;;;;;21.54;nan;99687.25;4964303;28;20049;-77
2022/06/01 09:14:28;;;;;;;18.75;16.33;;;;;;;21.60;nan;99687.25;4962895;28;20544;-78
2022/06/01 09:16:59;;;;;;;20.25;18.13;;;;;;;21.67;nan;99691.78;4964919;28;20495;-78
2022/06/01 09:22:37;;;;;;;25.92;16.00;;;;;;;21.74;nan;99693.38;4963716;28;20031;-78
2022/06/01 09:22:38;;;;;;;17.40;14.20;;;;;;;21.84;nan;99698.31;4963321;28;20032;-78
2022/06/01 09:25:10;;;;;;;16.67;14.98;;;;;;;21.93;nan;99697.03;4979826;28;20038;-78
2022/06/01 09:27:45;;;;;;;19.60;16.90;;;;;;;21.98;nan;99694.56;4962472;28;20040;-78
2022/06/01 09:30:17;;;;;;;15.45;13.85;;;;;;;22.02;nan;99690.44;4962410;28;20031;-78
2022/06/01 09:33:00;;;;;;;16.48;14.68;;;;;;;22.10;nan;99692.88;4962238;28;20466;-78
2022/06/01 09:35:37;;;;;;;17.02;15.40;;;;;;;22.19;nan;99686.22;4963557;28;20094;-78
2022/06/01 09:38:10;;;;;;;16.65;15.02;;;;;;;22.27;nan;99683.25;4963375;28;20043;-78
2022/06/01 09:40:36;;;;;;;17.30;15.48;;;;;;;22.33;nan;99670.81;4964712;28;20436;-77
2022/06/01 09:43:02;;;;;;;14.93;12.73;;;;;;;22.39;nan;99669.97;4963154;28;20051;-78
2022/06/01 09:45:55;;;;;;;15.07;13.68;;;;;;;22.49;nan;99672.19;4963594;28;20050;-76
2022/06/01 09:48:27;;;;;;;11.70;10.55;;;;;;;22.58;nan;99673.56;4962635;28;20488;-78
2022/06/01 09:51:07;;;;;;;11.73;10.35;;;;;;;22.70;nan;99666.44;4963010;28;20078;-78
2022/06/01 09:53:43;;;;;;;10.88;9.15;;;;;;;22.82;nan;99662.03;4963569;28;20473;-78
2022/06/01 09:56:10;;;;;;;10.90;9.65;;;;;;;22.95;nan;99664.63;4961588;28;20109;-78
2022/06/01 10:07:18;;;;;;;13.43;11.55;;;;;;;23.35;nan;99675.03;4964836;28;20109;-78
2022/06/01 10:09:50;;;;;;;12.35;11.10;;;;;;;23.41;nan;99674.13;4976016;28;20047;-78
2022/06/01 10:12:31;;;;;;;15.40;12.07;;;;;;;23.45;nan;99669.94;4961751;28;20099;-78
2022/06/01 10:14:58;;;;;;;13.82;12.27;;;;;;;23.42;nan;99675.78;4963395;28;20054;-78
2022/06/01 10:17:35;;;;;;;13.10;10.98;;;;;;;23.42;nan;99670.41;4962563;28;20467;-77
2022/06/01 10:20:19;;;;;;;12.18;11.00;;;;;;;23.51;nan;99671.78;4962742;28;20081;-79
2022/06/01 10:22:59;;;;;;;14.57;11.73;;;;;;;23.62;nan;99676.44;4965003;28;20026;-78
2022/06/01 10:25:31;;;;;;;17.45;10.52;;;;;;;23.81;nan;99675.38;4964166;28;20039;-78
2022/06/01 10:28:00;;;;;;;13.63;12.05;;;;;;;24.04;nan;99675.50;4962871;28;20038;-78
2022/06/01 10:30:31;;;;;;;12.65;11.45;;;;;;;24.11;nan;99677.28;4962318;28;20036;-78
2022/06/01 10:33:03;;;;;;;15.27;9.95;;;;;;;24.18;nan;99664.53;4963065;28;20066;-78
2022/06/01 10:35:58;;;;;;;9.48;7.13;;;;;;;24.26;nan;99672.34;4962902;28;20373;-78
2022/06/01 10:38:35;;;;;;;7.75;6.30;;;;;;;24.36;nan;99672.63;4960327;28;20046;-78
2022/06/01 10:41:06;;;;;;;6.20;5.72;;;;;;;24.46;nan;99687.19;4963249;28;20384;-78
2022/06/01 10:43:57;;;;;;;6.95;6.32;;;;;;;24.56;nan;99683.13;4965122;28;20073;-78
2022/06/01 10:46:41;;;;;;;12.50;5.95;;;;;;;24.67;nan;99685.88;4965445;28;20127;-78
2022/06/01 10:49:15;;;;;;;8.60;7.70;;;;;;;24.68;nan;99687.47;4966233;28;20039;-78
2022/06/01 10:51:40;;;;;;;8.52;6.10;;;;;;;24.65;nan;99682.56;4972081;28;20034;-79
2022/06/01 10:54:24;;;;;;;7.72;6.38;;;;;;;24.75;nan;99669.31;4963086;28;20373;-78
2022/06/01 10:56:49;;;;;;;6.60;6.00;;;;;;;24.84;nan;99670.66;4964929;28;20062;-78
2022/06/01 10:59:16;;;;;;;7.88;6.47;;;;;;;24.84;nan;99673.34;4959641;28;20476;-78
2022/06/01 11:02:09;;;;;;;6.63;5.82;;;;;;;24.91;nan;99667.03;4960097;28;20042;-79
2022/06/01 11:05:02;;;;;;;10.73;6.32;;;;;;;24.96;nan;99667.16;4962952;28;20047;-78
2022/06/01 11:07:49;;;;;;;9.15;6.03;;;;;;;24.98;nan;99659.63;4962075;28;20498;-78
2022/06/01 11:10:38;;;;;;;7.55;6.75;;;;;;;24.96;nan;99651.78;4960395;28;20444;-78
2022/06/01 11:13:12;;;;;;;7.95;7.32;;;;;;;24.94;nan;99647.66;4962883;28;20058;-78
2022/06/01 11:15:46;;;;;;;7.57;6.35;;;;;;;24.87;nan;99647.75;4960098;28;20416;-79
2022/06/01 11:18:51;;;;;;;7.30;5.47;;;;;;;24.84;nan;99638.25;4960416;28;20031;-78
2022/06/01 11:21:22;;;;;;;10.30;6.38;;;;;;;24.85;nan;99644.47;4955668;28;20043;-78
2022/06/01 11:24:07;;;;;;;8.75;7.55;;;;;;;24.77;nan;99637.53;4963427;28;20062;-78
2022/06/01 11:26:53;;;;;;;10.60;6.45;;;;;;;24.71;nan;99626.84;4962342;28;20129;-78
2022/06/01 11:29:39;;;;;;;8.82;5.72;;;;;;;24.76;nan;99624.25;4960641;28;20046;-78
2022/06/01 11:32:11;;;;;;;9.27;6.10;;;;;;;24.86;nan;99624.50;4961211;28;20046;-77
2022/06/01 11:34:51;;;;;;;6.70;5.93;;;;;;;24.93;nan;99629.81;4962962;28;20035;-77
2022/06/01 11:37:40;;;;;;;10.20;5.43;;;;;;;24.98;nan;99632.63;4960525;28;20488;-77
2022/06/01 11:40:12;;;;;;;5.40;4.75;;;;;;;25.06;nan;99632.31;4960619;28;20102;-78
2022/06/01 11:42:49;;;;;;;5.95;4.38;;;;;;;25.17;nan;99631.47;4962804;28;20082;-76
2022/06/01 11:45:42;;;;;;;5.10;4.70;;;;;;;25.29;nan;99625.00;4960277;28;20028;-79
2022/06/01 11:48:11;;;;;;;7.47;4.78;;;;;;;25.32;nan;99628.31;4963544;28;20041;-79
2022/06/01 11:51:01;;;;;;;8.65;4.80;;;;;;;25.28;nan;99627.94;4960231;28;20031;-79
2022/06/01 11:53:29;;;;;;;;;;;;;;;25.35;nan;99611.63;4961775;28;20170;-78
2022/06/01 11:56:30;;;;;;;3.42;3.10;;;;;;;25.38;nan;99606.56;4962151;28;19918;-79
2022/06/01 11:58:58;;;;;;;5.93;3.65;;;;;;;25.49;nan;99613.00;4959020;28;20043;-79
2022/06/01 12:01:43;;;;;;;5.65;3.63;;;;;;;25.62;nan;99604.69;4960800;28;20032;-79
2022/06/01 12:04:11;;;;;;;5.07;3.10;;;;;;;25.74;nan;99610.03;4960264;28;20031;-79
2022/06/01 12:06:53;;;;;;;5.78;3.50;;;;;;;25.85;nan;99601.91;4962691;28;20066;-79
2022/06/01 12:09:44;;;;;;;3.80;3.45;;;;;;;26.06;nan;99594.97;4960438;28;20492;-79
2022/06/01 12:12:32;;;;;;;4.03;3.22;;;;;;;26.32;nan;99597.13;4960273;28;20399;-79
2022/06/01 12:15:16;;;;;;;4.10;3.20;;;;;;;26.54;nan;99594.50;4961369;28;20043;-77
2022/06/01 12:17:58;;;;;;;4.63;3.35;;;;;;;26.70;nan;99592.84;4960918;28;20693;-80
2022/06/01 12:20:32;;;;;;;9.30;3.05;;;;;;;26.67;nan;99598.78;4979843;28;20067;-79